Time;durP1;ratioP1;P1;durP2;ratioP2;P2;SDS_P1;SDS_P2;PMS_P1;PMS_P2;Temp;Humidity;BMP_temperature;BMP_pressure;BME280_temperature;BME280_humidity;BME280_pressure;Samples;Min_cycle;Max_cycle;Signal;HPM_P1;HPM_P2
2023/05/03 00:00:06;;;;;;;2.05;1.50;;;;;;;17.69;39.47;101176.66;2093118;28;20056;-75
2023/05/03 00:01:31;;;;;;;5.45;2.17;;;;;;;17.66;39.73;101184.66;2095108;28;20067;-75
2023/05/03 00:02:56;;;;;;;2.88;1.80;;;;;;;17.66;39.53;101174.88;2103407;28;20051;-75
2023/05/03 00:04:19;;;;;;;7.10;2.85;;;;;;;17.65;40.00;101183.81;2096205;28;20094;-75
2023/05/03 00:05:40;;;;;;;5.13;2.20;;;;;;;17.62;39.98;101183.81;2103092;28;20054;-75
2023/05/03 00:07:03;;;;;;;2.88;1.92;;;;;;;17.61;40.27;101183.81;2094597;28;20037;-75
2023/05/03 00:08:26;;;;;;;5.03;2.17;;;;;;;17.60;40.61;101176.66;2100573;28;20066;-75
2023/05/03 00:09:48;;;;;;;4.38;1.70;;;;;;;17.57;40.83;101174.91;2096141;28;20044;-75
2023/05/03 00:11:11;;;;;;;5.63;2.15;;;;;;;17.56;41.35;101183.81;2100779;28;20056;-75
2023/05/03 00:12:32;;;;;;;4.18;2.10;;;;;;;17.57;41.60;101166.03;2095535;28;20032;-75
2023/05/03 00:13:54;;;;;;;4.45;2.17;;;;;;;17.54;42.04;101157.13;2086322;28;20519;-75
2023/05/03 00:15:17;;;;;;;9.55;2.53;;;;;;;17.53;42.22;101159.81;2091919;28;20512;-75
2023/05/03 00:16:41;;;;;;;7.38;2.30;;;;;;;17.50;42.56;101168.75;2102702;28;20044;-75
2023/05/03 00:18:05;;;;;;;3.63;1.95;;;;;;;17.48;43.29;101165.19;2097625;28;20040;-75
2023/05/03 00:19:31;;;;;;;4.47;2.17;;;;;;;17.48;43.75;101148.28;2111468;28;20400;-75
2023/05/03 00:20:54;;;;;;;4.22;2.10;;;;;;;17.47;44.29;101168.75;2111874;28;20511;-75
2023/05/03 00:22:17;;;;;;;4.18;2.30;;;;;;;17.48;45.06;101162.50;2103861;28;20086;-75
2023/05/03 00:23:39;;;;;;;4.65;2.22;;;;;;;17.50;45.62;101152.72;2108889;28;20044;-75
2023/05/03 00:25:03;;;;;;;4.25;2.85;;;;;;;17.52;45.83;101150.03;2096798;28;20085;-75
2023/05/03 00:26:26;;;;;;;6.95;2.55;;;;;;;17.54;45.99;101162.47;2108860;28;20044;-75
2023/05/03 00:27:47;;;;;;;7.20;3.13;;;;;;;17.56;46.35;101165.13;2092302;28;20508;-75
2023/05/03 00:29:10;;;;;;;7.47;2.78;;;;;;;17.52;46.58;101166.91;2105990;28;20054;-75
2023/05/03 00:30:32;;;;;;;6.63;2.53;;;;;;;17.50;46.36;101166.06;2111204;28;20063;-75
2023/05/03 00:31:55;;;;;;;4.90;2.38;;;;;;;17.48;46.78;101164.28;2111339;28;20043;-75
2023/05/03 00:33:18;;;;;;;4.28;2.30;;;;;;;17.47;46.96;101174.06;2111178;28;20096;-75
2023/05/03 00:34:40;;;;;;;4.53;2.55;;;;;;;17.50;46.84;101181.19;2102367;28;20837;-75
2023/05/03 00:36:07;;;;;;;3.03;2.35;;;;;;;17.50;47.12;101179.41;2107212;28;20047;-75
2023/05/03 00:37:30;;;;;;;3.03;2.10;;;;;;;17.48;47.20;101172.28;2106810;28;20059;-75
2023/05/03 00:38:51;;;;;;;5.30;2.65;;;;;;;17.47;47.09;101168.75;2112486;28;20044;-75
2023/05/03 00:40:17;;;;;;;5.07;2.35;;;;;;;17.46;46.92;101174.97;2096748;28;20610;-75
2023/05/03 00:41:40;;;;;;;5.82;2.45;;;;;;;17.48;46.61;101173.19;2094236;28;20080;-75
2023/05/03 00:43:03;;;;;;;5.55;2.60;;;;;;;17.49;46.40;101168.75;2102659;28;20044;-75
2023/05/03 00:44:25;;;;;;;8.23;2.72;;;;;;;17.51;45.94;101172.28;2095012;28;20484;-74
2023/05/03 00:45:48;;;;;;;5.57;2.55;;;;;;;17.48;46.07;101165.19;2091326;28;20049;-75
2023/05/03 00:47:11;;;;;;;4.60;2.30;;;;;;;17.49;45.94;101158.94;2102548;28;20441;-74
2023/05/03 00:48:33;;;;;;;4.22;2.70;;;;;;;17.49;45.86;101169.63;2100885;28;20044;-75
2023/05/03 00:49:56;;;;;;;;;;;;;;;17.48;45.70;101146.50;2101831;28;20139;-75
2023/05/03 00:51:19;;;;;;;3.33;2.28;;;;;;;17.48;45.16;101156.28;2102776;28;20384;-75
2023/05/03 00:52:43;;;;;;;8.68;2.58;;;;;;;17.50;44.42;101168.75;2100934;28;20043;-75
2023/05/03 00:54:04;;;;;;;5.90;2.67;;;;;;;17.52;44.52;101164.25;2092574;28;20037;-75
2023/05/03 00:55:30;;;;;;;5.68;2.60;;;;;;;17.52;44.18;101156.25;2098598;28;20409;-75
2023/05/03 00:56:52;;;;;;;4.40;2.60;;;;;;;17.50;44.78;101166.06;2101494;28;20399;-75
2023/05/03 00:58:14;;;;;;;5.32;2.70;;;;;;;17.51;44.45;101153.59;2102436;28;20104;-75
2023/05/03 00:59:37;;;;;;;5.43;2.00;;;;;;;17.53;44.29;101157.13;2101329;28;20121;-74
2023/05/03 01:01:00;;;;;;;5.30;2.63;;;;;;;17.54;43.93;101153.56;2096716;28;20827;-74
2023/05/03 01:02:23;;;;;;;5.88;2.88;;;;;;;17.54;43.86;101146.44;2097519;28;20047;-74
2023/05/03 01:03:47;;;;;;;6.38;3.00;;;;;;;17.53;43.88;101151.78;2093362;28;20049;-74
2023/05/03 01:05:09;;;;;;;4.28;2.30;;;;;;;17.54;43.79;101140.22;2091759;28;20044;-74
2023/05/03 01:06:42;;;;;;;4.45;2.50;;;;;;;17.54;43.83;101138.44;2098837;28;20105;-75
2023/05/03 01:08:09;;;;;;;4.72;3.08;;;;;;;17.54;43.87;101138.44;2094387;28;20086;-74
2023/05/03 01:09:38;;;;;;;8.73;2.58;;;;;;;17.57;43.44;101136.66;2100153;28;20518;-75
2023/05/03 01:11:06;;;;;;;4.32;2.15;;;;;;;17.59;43.11;101140.22;2100140;28;20068;-75
2023/05/03 01:12:37;;;;;;;4.93;2.42;;;;;;;17.60;43.30;101139.28;2100172;28;20044;-75
2023/05/03 01:14:10;;;;;;;4.43;2.42;;;;;;;17.61;43.20;101136.66;2100089;28;20036;-74
2023/05/03 01:15:44;;;;;;;5.57;2.47;;;;;;;17.61;43.36;101135.75;2092621;28;20627;-75
2023/05/03 01:17:12;;;;;;;7.75;2.70;;;;;;;17.61;43.14;101136.66;2093961;28;20067;-74
2023/05/03 01:18:39;;;;;;;4.97;2.78;;;;;;;17.63;42.96;101147.31;2092966;28;20097;-74
2023/05/03 01:20:09;;;;;;;4.45;2.75;;;;;;;17.66;43.05;101140.16;2084951;28;20045;-75
2023/05/03 01:21:32;;;;;;;6.93;2.83;;;;;;;17.64;43.43;101139.31;2101933;28;20657;-75
2023/05/03 01:23:05;;;;;;;5.30;2.88;;;;;;;17.67;43.40;101141.94;2089535;28;20090;-74
2023/05/03 01:24:32;;;;;;;3.92;2.30;;;;;;;17.67;43.44;101135.72;2102648;28;20055;-74
2023/05/03 01:25:55;;;;;;;4.63;2.17;;;;;;;17.66;43.58;101134.81;2093189;28;20443;-74
2023/05/03 01:27:20;;;;;;;4.00;2.35;;;;;;;17.68;43.39;101119.69;2091650;28;20135;-75
2023/05/03 01:28:41;;;;;;;6.40;2.63;;;;;;;17.73;43.18;101122.31;2098962;28;20044;-74
2023/05/03 01:30:06;;;;;;;5.13;2.50;;;;;;;17.72;42.63;101118.75;2100714;28;20044;-74
2023/05/03 01:31:33;;;;;;;9.05;2.97;;;;;;;17.72;42.09;101110.75;2100635;28;20052;-75
2023/05/03 01:33:04;;;;;;;5.78;2.67;;;;;;;17.73;42.22;101111.63;2103516;28;20121;-75
2023/05/03 01:34:38;;;;;;;5.15;2.67;;;;;;;17.75;42.20;101110.72;2097896;28;20036;-74
2023/05/03 01:36:07;;;;;;;6.80;2.42;;;;;;;17.77;42.39;101116.94;2103761;28;20048;-74
2023/05/03 01:37:29;;;;;;;6.57;2.50;;;;;;;17.77;42.59;101113.41;2099279;28;20047;-74
2023/05/03 01:38:51;;;;;;;4.47;2.63;;;;;;;17.78;42.35;101116.06;2102321;28;20100;-75
2023/05/03 01:40:18;;;;;;;8.27;3.03;;;;;;;17.81;42.25;101117.81;2104615;28;20456;-75
2023/05/03 01:41:42;;;;;;;5.35;2.60;;;;;;;17.83;42.30;101122.25;2103026;28;20047;-75
2023/05/03 01:43:06;;;;;;;4.13;2.35;;;;;;;17.85;42.30;101119.56;2100879;28;20504;-74
2023/05/03 01:44:30;;;;;;;5.97;2.63;;;;;;;17.87;42.44;101120.41;2110195;28;20082;-74
2023/05/03 01:45:52;;;;;;;4.85;2.50;;;;;;;17.86;42.53;101124.88;2093301;28;20053;-75
2023/05/03 01:47:15;;;;;;;7.88;2.75;;;;;;;17.87;42.17;101112.41;2104392;28;20507;-75
2023/05/03 01:48:36;;;;;;;5.05;2.60;;;;;;;17.88;41.89;101103.50;2103411;28;20040;-75
2023/05/03 01:49:58;;;;;;;4.38;2.70;;;;;;;17.90;41.57;101109.72;2102096;28;20044;-75
2023/05/03 01:51:21;;;;;;;4.35;2.50;;;;;;;17.91;40.96;101117.72;2091162;28;20040;-75
2023/05/03 01:52:44;;;;;;;4.22;2.40;;;;;;;17.95;41.14;101112.34;2090479;28;20128;-75
2023/05/03 01:54:06;;;;;;;5.43;2.10;;;;;;;17.98;41.25;101106.97;2094815;28;20052;-75
2023/05/03 01:55:29;;;;;;;5.80;2.80;;;;;;;18.01;41.12;101112.28;2104454;28;20044;-73
2023/05/03 01:56:53;;;;;;;6.70;2.75;;;;;;;18.04;40.64;101098.91;2101047;28;20056;-75
2023/05/03 01:58:15;;;;;;;6.22;2.60;;;;;;;18.07;40.42;101115.78;2094926;28;20053;-75
2023/05/03 01:59:37;;;;;;;5.32;2.17;;;;;;;18.09;40.69;101122.00;2092790;28;20089;-75
2023/05/03 02:01:00;;;;;;;5.72;2.63;;;;;;;18.12;40.64;101113.06;2088408;28;20393;-75
2023/05/03 02:02:21;;;;;;;7.53;2.50;;;;;;;18.16;40.68;101104.13;2091150;28;20588;-75
2023/05/03 02:03:43;;;;;;;4.80;2.40;;;;;;;18.17;40.40;101112.13;2099060;28;20067;-75
2023/05/03 02:05:06;;;;;;;6.32;2.38;;;;;;;18.18;40.52;101118.38;2084822;28;20465;-75
2023/05/03 02:06:29;;;;;;;5.82;2.70;;;;;;;18.20;40.56;101106.75;2101100;28;20104;-75
2023/05/03 02:07:53;;;;;;;4.00;2.35;;;;;;;18.23;40.22;101113.88;2089754;28;20072;-75
2023/05/03 02:09:16;;;;;;;5.85;2.40;;;;;;;18.23;40.20;101120.09;2091065;28;20048;-74
2023/05/03 02:10:39;;;;;;;6.45;2.50;;;;;;;18.26;40.03;101120.03;2101999;28;20044;-75
2023/05/03 02:12:02;;;;;;;5.18;2.63;;;;;;;18.29;39.76;101121.81;2109876;28;20043;-75
2023/05/03 02:13:24;;;;;;;6.38;2.40;;;;;;;18.31;39.74;101115.53;2096382;28;20139;-75
2023/05/03 02:14:45;;;;;;;4.43;2.30;;;;;;;18.33;39.48;101113.75;2101951;28;20051;-75
2023/05/03 02:16:08;;;;;;;5.82;2.28;;;;;;;18.36;38.99;101119.97;2101481;28;20067;-75
2023/05/03 02:17:29;;;;;;;4.15;2.33;;;;;;;18.39;38.99;101128.81;2093520;28;20049;-75
2023/05/03 02:18:52;;;;;;;6.53;2.78;;;;;;;18.39;38.77;101119.91;2091143;28;20067;-75
2023/05/03 02:20:13;;;;;;;7.55;2.45;;;;;;;18.40;38.73;101124.38;2098715;28;20209;-75
2023/05/03 02:21:38;;;;;;;6.25;2.78;;;;;;;18.41;38.59;101121.69;2097379;28;20079;-74
2023/05/03 02:22:59;;;;;;;6.25;2.47;;;;;;;18.41;38.68;101120.78;2094078;28;20140;-75
2023/05/03 02:24:22;;;;;;;3.40;1.95;;;;;;;18.41;38.14;101119.00;2099096;28;20075;-75
2023/05/03 02:25:43;;;;;;;6.15;2.30;;;;;;;18.43;38.10;101116.31;2093753;28;20047;-75
2023/05/03 02:27:07;;;;;;;7.07;2.65;;;;;;;18.45;37.78;101125.19;2091100;28;20051;-75
2023/05/03 02:28:29;;;;;;;4.03;2.72;;;;;;;18.46;37.52;101127.84;2096854;28;20139;-75
2023/05/03 02:29:51;;;;;;;4.35;2.28;;;;;;;18.51;37.04;101127.84;2099180;28;20142;-75
2023/05/03 02:31:14;;;;;;;4.63;2.38;;;;;;;18.53;36.82;101117.97;2108119;28;20056;-75
2023/05/03 02:32:37;;;;;;;8.85;3.75;;;;;;;18.56;36.90;101128.69;2102183;28;20081;-76
2023/05/03 02:33:59;;;;;;;;;;;;;;;18.55;36.96;101127.81;2096902;28;20071;-75
2023/05/03 02:35:22;;;;;;;5.20;2.10;;;;;;;18.57;36.71;101134.03;2091201;28;20011;-75
2023/05/03 02:36:45;;;;;;;4.47;1.90;;;;;;;18.63;36.29;101131.28;2098421;28;20797;-75
2023/05/03 02:38:07;;;;;;;3.55;1.80;;;;;;;18.67;35.56;101137.47;2082739;28;20102;-75
2023/05/03 02:39:28;;;;;;;3.53;1.98;;;;;;;18.70;35.64;101130.31;2090440;28;20052;-75
2023/05/03 02:40:51;;;;;;;6.57;2.28;;;;;;;18.74;35.77;101138.28;2093243;28;20053;-75
2023/05/03 02:42:13;;;;;;;3.40;2.20;;;;;;;18.77;35.47;101132.91;2091252;28;20052;-76
2023/05/03 02:43:36;;;;;;;4.00;2.17;;;;;;;18.79;35.44;101140.00;2096462;28;20102;-75
2023/05/03 02:44:59;;;;;;;3.65;1.90;;;;;;;18.78;35.55;101135.53;2090737;28;20604;-75
2023/05/03 02:46:22;;;;;;;3.97;1.70;;;;;;;18.81;35.19;101134.63;2090195;28;20041;-75
2023/05/03 02:47:45;;;;;;;6.80;2.42;;;;;;;18.84;34.99;101139.97;2092244;28;20547;-75
2023/05/03 02:49:10;;;;;;;5.00;1.90;;;;;;;18.86;35.16;101147.03;2091426;28;20615;-75
2023/05/03 02:50:32;;;;;;;3.47;1.85;;;;;;;18.86;35.11;101146.16;2086018;28;20143;-76
2023/05/03 02:51:55;;;;;;;6.70;2.33;;;;;;;18.91;34.73;101146.97;2102174;28;20130;-75
2023/05/03 02:53:17;;;;;;;3.40;2.00;;;;;;;18.93;34.49;101143.38;2092614;28;21012;-75
2023/05/03 02:54:40;;;;;;;4.35;1.98;;;;;;;18.95;34.49;101138.91;2094048;28;20044;-75
2023/05/03 02:56:08;;;;;;;3.40;1.63;;;;;;;18.98;34.22;101135.28;2094989;28;20052;-75
2023/05/03 02:57:31;;;;;;;4.47;1.58;;;;;;;19.00;33.94;101144.19;2099642;28;20161;-76
2023/05/03 02:58:54;;;;;;;4.03;1.90;;;;;;;19.00;33.79;101149.53;2092738;28;20459;-75
2023/05/03 03:00:16;;;;;;;4.88;1.98;;;;;;;19.02;33.70;101153.09;2090578;28;20049;-75
2023/05/03 03:01:39;;;;;;;3.13;1.90;;;;;;;19.01;34.14;101154.00;2089310;28;20151;-75
2023/05/03 03:03:02;;;;;;;4.55;2.05;;;;;;;18.99;34.21;101156.69;2090143;28;20131;-75
2023/05/03 03:04:25;;;;;;;3.42;1.83;;;;;;;18.97;34.26;101157.63;2090960;28;20052;-75
2023/05/03 03:05:47;;;;;;;5.65;1.65;;;;;;;18.96;34.00;101172.81;2090028;28;20400;-75
2023/05/03 03:07:09;;;;;;;3.92;1.70;;;;;;;18.98;33.86;101170.06;2089960;28;20067;-75
2023/05/03 03:08:32;;;;;;;9.48;1.85;;;;;;;19.00;33.98;101168.28;2090478;28;20090;-75
2023/05/03 03:09:58;;;;;;;4.35;1.70;;;;;;;19.02;33.58;101172.72;2089884;28;20083;-75
2023/05/03 03:11:19;;;;;;;4.63;1.75;;;;;;;19.05;33.96;101171.78;2107904;28;20040;-75
2023/05/03 03:12:44;;;;;;;;;;;;;;;19.02;34.15;101170.03;2100803;28;20135;-75
2023/05/03 03:14:14;;;;;;;3.65;1.77;;;;;;;19.01;34.09;101164.69;2093546;28;19966;-75
2023/05/03 03:15:37;;;;;;;4.72;1.77;;;;;;;19.04;33.92;101175.34;2092385;28;20044;-75
2023/05/03 03:16:59;;;;;;;3.47;1.70;;;;;;;19.07;33.74;101176.22;2099815;28;20044;-75
2023/05/03 03:18:22;;;;;;;4.70;1.90;;;;;;;19.10;33.81;101170.81;2098056;28;20068;-75
2023/05/03 03:19:44;;;;;;;2.95;1.63;;;;;;;19.12;33.79;101184.19;2099342;28;20147;-75
2023/05/03 03:21:07;;;;;;;2.75;1.55;;;;;;;19.12;33.77;101184.19;2095327;28;20528;-75
2023/05/03 03:22:31;;;;;;;6.95;1.80;;;;;;;19.11;33.82;101188.66;2091491;28;20045;-75
2023/05/03 03:23:54;;;;;;;4.10;1.85;;;;;;;19.11;33.76;101183.28;2100966;28;20134;-75
2023/05/03 03:25:15;;;;;;;5.60;1.50;;;;;;;19.13;33.81;101174.38;2094007;28;20393;-75
2023/05/03 03:26:38;;;;;;;3.40;1.38;;;;;;;19.11;33.41;101177.94;2093485;28;20045;-75
2023/05/03 03:28:02;;;;;;;4.47;1.50;;;;;;;19.15;33.03;101172.56;2093498;28;20056;-75
2023/05/03 03:29:26;;;;;;;6.20;1.67;;;;;;;19.17;32.69;101170.72;2086612;28;20041;-75
2023/05/03 03:30:49;;;;;;;4.03;1.63;;;;;;;19.21;32.37;101156.41;2092624;28;20078;-75
2023/05/03 03:32:17;;;;;;;4.30;1.42;;;;;;;19.25;32.13;101166.16;2092725;28;20044;-75
2023/05/03 03:33:39;;;;;;;4.05;1.30;;;;;;;19.29;32.42;101179.50;2100107;28;20036;-75
2023/05/03 03:35:08;;;;;;;4.70;1.55;;;;;;;19.33;32.01;101159.81;2095382;28;20493;-74
2023/05/03 03:36:31;;;;;;;3.72;1.40;;;;;;;19.38;31.92;101165.09;2084142;28;20175;-75
2023/05/03 03:37:53;;;;;;;3.17;1.30;;;;;;;19.39;32.09;101162.41;2096963;28;20039;-75
2023/05/03 03:39:18;;;;;;;3.00;1.08;;;;;;;19.40;31.64;101160.59;2088713;28;20528;-75
2023/05/03 03:40:41;;;;;;;3.53;1.17;;;;;;;19.41;31.75;101155.25;2092482;28;20045;-75
2023/05/03 03:42:03;;;;;;;2.38;1.33;;;;;;;19.41;31.45;101151.66;2092378;28;20056;-75
2023/05/03 03:43:27;;;;;;;3.35;1.35;;;;;;;19.42;31.55;101161.47;2090121;28;20159;-75
2023/05/03 03:44:50;;;;;;;2.28;0.98;;;;;;;19.40;31.33;101160.59;2094689;28;20459;-74
2023/05/03 03:46:11;;;;;;;2.15;1.10;;;;;;;19.39;31.37;101148.13;2095063;28;20064;-75
2023/05/03 03:47:35;;;;;;;3.78;1.27;;;;;;;19.40;31.57;101153.47;2086440;28;20055;-75
2023/05/03 03:48:56;;;;;;;3.13;1.13;;;;;;;19.41;31.20;101143.63;2091336;28;20040;-75
2023/05/03 03:50:21;;;;;;;6.35;1.48;;;;;;;19.43;31.21;101140.00;2091380;28;20068;-75
2023/05/03 03:51:43;;;;;;;2.83;1.20;;;;;;;19.47;31.10;101149.81;2092123;28;20253;-75
2023/05/03 03:53:05;;;;;;;4.75;1.17;;;;;;;19.48;31.63;101162.31;2093389;28;20037;-75
2023/05/03 03:54:28;;;;;;;1.73;0.70;;;;;;;19.47;31.58;101159.66;2099646;28;20151;-74
2023/05/03 03:55:50;;;;;;;4.57;1.15;;;;;;;19.50;31.12;101159.59;2090318;28;20415;-75
2023/05/03 03:57:13;;;;;;;4.05;0.93;;;;;;;19.53;31.08;101156.88;2100162;28;20110;-75
2023/05/03 03:58:37;;;;;;;2.85;1.17;;;;;;;19.59;30.72;101156.78;2094669;28;20106;-75
2023/05/03 04:00:04;;;;;;;3.65;0.90;;;;;;;19.63;31.10;101168.31;2091348;28;20905;-75
2023/05/03 04:01:34;;;;;;;2.65;1.10;;;;;;;19.62;31.49;101164.78;2103753;28;20052;-75
2023/05/03 04:02:55;;;;;;;3.85;1.08;;;;;;;19.62;31.42;101158.53;2097842;28;20040;-75
2023/05/03 04:04:18;;;;;;;5.18;1.08;;;;;;;19.62;31.24;101140.69;2099877;28;20418;-75
2023/05/03 04:05:39;;;;;;;3.97;1.27;;;;;;;19.66;30.70;101139.72;2093323;28;20056;-75
2023/05/03 04:07:03;;;;;;;2.65;0.93;;;;;;;19.69;31.11;101139.66;2107876;28;20134;-75
2023/05/03 04:08:26;;;;;;;3.47;1.23;;;;;;;19.73;31.38;101157.47;2100927;28;20082;-75
2023/05/03 04:09:48;;;;;;;4.75;1.17;;;;;;;19.75;31.33;101158.34;2094046;28;20420;-75
2023/05/03 04:11:11;;;;;;;2.33;0.85;;;;;;;19.77;31.36;101152.94;2099570;28;20044;-75
2023/05/03 04:12:38;;;;;;;4.38;1.00;;;;;;;19.78;31.25;101158.28;2092990;28;20052;-75
2023/05/03 04:14:02;;;;;;;3.63;1.48;;;;;;;19.81;31.25;101141.28;2097254;28;20056;-75
2023/05/03 04:15:25;;;;;;;2.95;1.13;;;;;;;19.84;30.81;101154.59;2100113;28;20066;-75
2023/05/03 04:16:51;;;;;;;1.52;0.90;;;;;;;19.87;30.91;101165.28;2093503;28;20044;-75
2023/05/03 04:18:12;;;;;;;3.03;1.00;;;;;;;19.88;30.70;101154.56;2091753;28;20048;-75
2023/05/03 04:19:37;;;;;;;2.20;0.70;;;;;;;19.92;30.60;101162.53;2093536;28;20045;-75
2023/05/03 04:21:00;;;;;;;3.95;0.90;;;;;;;19.94;30.78;101172.31;2083855;28;20099;-75
2023/05/03 04:22:22;;;;;;;4.15;1.02;;;;;;;19.97;31.09;101182.09;2096705;28;20093;-75
2023/05/03 04:23:45;;;;;;;3.72;1.10;;;;;;;19.97;31.35;101171.38;2085669;28;20060;-75
2023/05/03 04:25:12;;;;;;;1.45;0.95;;;;;;;19.96;31.39;101166.91;2093755;28;20102;-75
2023/05/03 04:26:36;;;;;;;2.97;1.02;;;;;;;19.99;31.00;101193.69;2095903;28;20044;-75
2023/05/03 04:28:05;;;;;;;4.18;1.15;;;;;;;20.02;31.38;101182.91;2086803;28;20518;-75
2023/05/03 04:29:30;;;;;;;2.67;1.08;;;;;;;20.04;31.56;101175.72;2091972;28;20046;-75
2023/05/03 04:30:52;;;;;;;3.15;1.23;;;;;;;20.02;31.91;101185.59;2091785;28;20059;-75
2023/05/03 04:32:21;;;;;;;2.10;0.88;;;;;;;20.02;31.48;101193.63;2091727;28;20052;-75
2023/05/03 04:33:44;;;;;;;3.65;0.70;;;;;;;20.04;31.50;101191.78;2089317;28;20559;-75
2023/05/03 04:35:09;;;;;;;4.10;1.27;;;;;;;20.09;31.93;101196.16;2091679;28;20489;-74
2023/05/03 04:36:33;;;;;;;4.85;1.10;;;;;;;20.13;32.22;101186.28;2097512;28;20075;-75
2023/05/03 04:37:54;;;;;;;3.90;1.13;;;;;;;20.16;32.40;101195.16;2092143;28;20585;-75
2023/05/03 04:39:20;;;;;;;3.58;1.20;;;;;;;20.18;32.53;101195.13;2099700;28;20048;-75
2023/05/03 04:40:44;;;;;;;2.78;1.17;;;;;;;20.18;33.01;101203.19;2092695;28;20037;-75
2023/05/03 04:42:06;;;;;;;1.20;0.88;;;;;;;20.16;33.54;101200.53;2096085;28;20511;-75
2023/05/03 04:43:29;;;;;;;15.63;1.30;;;;;;;20.14;34.03;101183.59;2088857;28;20163;-75
2023/05/03 04:44:53;;;;;;;3.42;0.85;;;;;;;20.15;34.14;101197.88;2093349;28;20045;-75
2023/05/03 04:46:15;;;;;;;5.55;1.40;;;;;;;20.12;34.27;101188.09;2095772;28;20040;-75
2023/05/03 04:47:37;;;;;;;3.67;1.13;;;;;;;20.15;34.97;101197.88;2086212;28;20098;-75
2023/05/03 04:49:00;;;;;;;2.60;1.13;;;;;;;20.14;35.29;101194.31;2091520;28;20044;-75
2023/05/03 04:50:22;;;;;;;5.28;1.10;;;;;;;20.17;35.12;101193.38;2085977;28;20041;-75
2023/05/03 04:51:46;;;;;;;5.47;1.42;;;;;;;20.18;35.39;101203.19;2092483;28;20045;-75
2023/05/03 04:53:09;;;;;;;2.80;1.30;;;;;;;20.19;35.54;101196.91;2095793;28;20048;-75
2023/05/03 04:54:34;;;;;;;4.72;1.30;;;;;;;20.23;35.60;101194.16;2096272;28;20601;-75
2023/05/03 04:55:56;;;;;;;2.15;1.17;;;;;;;20.29;35.29;101196.72;2102467;28;20068;-75
2023/05/03 04:57:19;;;;;;;6.35;1.08;;;;;;;20.30;35.52;101193.13;2099920;28;20067;-75
2023/05/03 04:58:41;;;;;;;2.50;1.00;;;;;;;20.30;35.55;101187.75;2094106;28;20045;-75
2023/05/03 05:00:10;;;;;;;5.68;1.10;;;;;;;20.30;35.41;101203.84;2094304;28;20044;-75
2023/05/03 05:01:35;;;;;;;6.45;1.63;;;;;;;20.35;34.97;101219.88;2087102;28;20501;-75
2023/05/03 05:02:59;;;;;;;3.25;1.48;;;;;;;20.39;35.83;101216.28;2085973;28;20072;-75
2023/05/03 05:04:25;;;;;;;3.92;1.50;;;;;;;20.39;35.73;101200.19;2093051;28;20508;-75
2023/05/03 05:05:47;;;;;;;4.18;1.20;;;;;;;20.39;35.63;101212.69;2099876;28;20051;-75
2023/05/03 05:07:10;;;;;;;4.05;1.08;;;;;;;20.38;36.12;101218.97;2099218;28;20082;-75
2023/05/03 05:08:32;;;;;;;5.72;1.42;;;;;;;20.35;36.47;101211.84;2092008;28;20032;-75
2023/05/03 05:09:55;;;;;;;5.72;1.52;;;;;;;20.32;36.93;101211.88;2092001;28;20508;-75
2023/05/03 05:11:19;;;;;;;3.67;0.90;;;;;;;20.32;36.66;101219.03;2086333;28;20110;-75
2023/05/03 05:12:42;;;;;;;3.47;0.93;;;;;;;20.32;36.53;101219.94;2090623;28;20052;-75
2023/05/03 05:14:05;;;;;;;4.25;0.93;;;;;;;20.34;37.07;101215.47;2098788;28;20155;-75
2023/05/03 05:15:30;;;;;;;3.92;1.15;;;;;;;20.34;37.16;101223.50;2095481;28;20514;-75
2023/05/03 05:16:52;;;;;;;4.43;1.35;;;;;;;20.34;37.41;101212.78;2097923;28;20036;-75
2023/05/03 05:18:15;;;;;;;5.25;1.27;;;;;;;20.33;37.63;101208.34;2091523;28;20483;-75
2023/05/03 05:19:39;;;;;;;2.35;1.02;;;;;;;20.33;37.08;101207.44;2090856;28;20044;-75
2023/05/03 05:21:02;;;;;;;4.53;1.30;;;;;;;20.34;36.80;101220.84;2088295;28;20493;-75
2023/05/03 05:22:27;;;;;;;6.53;1.20;;;;;;;20.39;36.78;101208.22;2094228;28;20048;-75
2023/05/03 05:23:53;;;;;;;3.08;0.93;;;;;;;20.43;36.27;101220.66;2091715;28;20587;-75
2023/05/03 05:25:16;;;;;;;5.93;1.27;;;;;;;20.46;36.29;101212.56;2090539;28;20056;-74
2023/05/03 05:26:39;;;;;;;8.10;1.50;;;;;;;20.49;37.44;101209.81;2087835;28;20331;-76
2023/05/03 05:28:01;;;;;;;3.97;1.17;;;;;;;20.50;37.90;101210.69;2099750;28;20572;-74
2023/05/03 05:29:24;;;;;;;2.92;1.00;;;;;;;20.50;38.05;101205.34;2091915;28;20056;-74
2023/05/03 05:30:49;;;;;;;3.45;1.20;;;;;;;20.51;38.66;101197.28;2090050;28;20040;-76
2023/05/03 05:32:11;;;;;;;2.88;1.10;;;;;;;20.52;38.83;101196.34;2099619;28;20052;-75
2023/05/03 05:33:34;;;;;;;6.72;1.48;;;;;;;20.54;37.90;101207.06;2090135;28;20404;-75
2023/05/03 05:34:56;;;;;;;4.35;0.82;;;;;;;20.58;37.38;101203.41;2093238;28;20048;-75
2023/05/03 05:36:22;;;;;;;7.28;1.35;;;;;;;20.62;37.17;101203.31;2085421;28;20568;-75
2023/05/03 05:37:46;;;;;;;6.43;1.20;;;;;;;20.66;37.82;101191.63;2083620;28;20530;-75
2023/05/03 05:39:09;;;;;;;6.97;1.20;;;;;;;20.69;38.23;101201.41;2090888;28;20041;-75
2023/05/03 05:40:31;;;;;;;3.55;1.05;;;;;;;20.71;38.36;101206.75;2098472;28;20048;-75
2023/05/03 05:41:55;;;;;;;3.22;1.13;;;;;;;20.76;38.96;101204.84;2086016;28;20115;-75
2023/05/03 05:43:18;;;;;;;5.13;1.40;;;;;;;20.77;39.81;101201.25;2085112;28;20146;-75
2023/05/03 05:44:40;;;;;;;4.60;1.20;;;;;;;20.76;40.62;101211.09;2099533;28;20166;-75
2023/05/03 05:46:04;;;;;;;3.35;1.40;;;;;;;20.77;39.84;101206.63;2097489;28;20052;-75
2023/05/03 05:47:27;;;;;;;5.68;1.63;;;;;;;20.80;39.55;101209.25;2089062;28;20048;-75
2023/05/03 05:48:52;;;;;;;6.88;1.60;;;;;;;20.85;39.66;101200.19;2097589;28;20092;-75
2023/05/03 05:50:15;;;;;;;6.20;1.50;;;;;;;20.92;40.14;101203.66;2077192;28;20394;-75
2023/05/03 05:51:38;;;;;;;5.43;1.52;;;;;;;20.93;40.95;101203.63;2093551;28;20047;-75
2023/05/03 05:53:01;;;;;;;4.57;1.20;;;;;;;20.95;41.07;101192.84;2088102;28;20118;-75
2023/05/03 05:54:27;;;;;;;5.25;1.50;;;;;;;20.95;40.12;101206.25;2097883;28;20131;-75
2023/05/03 05:55:50;;;;;;;4.93;1.50;;;;;;;20.97;39.90;101213.38;2090777;28;20155;-75
2023/05/03 05:57:13;;;;;;;3.97;1.30;;;;;;;20.99;40.28;101214.25;2093116;28;20049;-75
2023/05/03 05:58:37;;;;;;;3.97;1.15;;;;;;;21.02;40.84;101205.22;2095489;28;20051;-75
2023/05/03 06:00:00;;;;;;;2.53;1.42;;;;;;;21.05;40.84;101210.53;2094067;28;20151;-75
2023/05/03 06:01:25;;;;;;;6.28;1.70;;;;;;;21.07;41.40;101214.94;2088953;28;20147;-75
2023/05/03 06:02:48;;;;;;;3.35;1.50;;;;;;;21.08;40.83;101221.19;2099066;28;20040;-75
2023/05/03 06:04:14;;;;;;;6.35;1.65;;;;;;;21.12;39.15;101216.69;2087922;28;20053;-75
2023/05/03 06:05:36;;;;;;;6.72;1.40;;;;;;;21.16;38.99;101223.78;2099454;28;20044;-75
2023/05/03 06:06:59;;;;;;;6.65;1.45;;;;;;;21.20;39.32;101226.34;2099567;28;20165;-75
2023/05/03 06:08:21;;;;;;;4.72;1.30;;;;;;;21.25;39.10;101218.22;2106736;28;20512;-75
2023/05/03 06:09:44;;;;;;;4.43;1.27;;;;;;;21.29;38.69;101242.28;2095668;28;20060;-75
2023/05/03 06:11:07;;;;;;;4.72;1.08;;;;;;;21.35;38.00;101233.22;2090304;28;20151;-74
2023/05/03 06:12:30;;;;;;;8.82;1.55;;;;;;;21.39;37.90;101233.13;2090138;28;20048;-75
2023/05/03 06:13:54;;;;;;;2.65;1.23;;;;;;;21.46;38.30;101250.00;2087478;28;20080;-75
2023/05/03 06:15:16;;;;;;;3.33;1.50;;;;;;;21.50;38.76;101242.75;2084745;28;20148;-75
2023/05/03 06:16:41;;;;;;;6.60;1.20;;;;;;;21.53;37.75;101240.00;2094988;28;20040;-75
2023/05/03 06:18:04;;;;;;;5.20;1.27;;;;;;;21.53;37.56;101230.13;2091711;28;20694;-75
2023/05/03 06:19:26;;;;;;;6.53;1.73;;;;;;;21.56;38.09;101234.56;2094554;28;20138;-74
2023/05/03 06:20:52;;;;;;;5.32;1.33;;;;;;;21.58;38.69;101251.53;2093676;28;20043;-75
2023/05/03 06:22:15;;;;;;;7.55;1.85;;;;;;;21.60;39.90;101242.50;2085766;28;20589;-73
2023/05/03 06:23:39;;;;;;;4.95;1.70;;;;;;;21.60;40.75;101241.63;2091209;28;20520;-75
2023/05/03 06:25:02;;;;;;;4.53;1.88;;;;;;;21.59;41.10;101247.94;2093372;28;20479;-74
2023/05/03 06:26:25;;;;;;;4.38;1.45;;;;;;;21.55;41.45;101244.41;2099410;28;20762;-74
2023/05/03 06:27:47;;;;;;;5.63;1.75;;;;;;;21.55;40.06;101247.09;2102139;28;20044;-74
2023/05/03 06:29:09;;;;;;;6.40;1.60;;;;;;;21.57;40.03;101249.78;2093644;28;20045;-74